createdAt,value
2023-04-15T00:00:34.853Z,33.45
2023-04-15T00:03:38.638Z,33.13
2023-04-15T00:06:42.812Z,32.28
2023-04-15T00:09:47.100Z,32.20
2023-04-15T00:12:50.104Z,31.85
2023-04-15T00:15:53.577Z,31.00
2023-04-15T00:18:57.504Z,31.40
2023-04-15T00:22:01.783Z,29.27
2023-04-15T00:25:06.015Z,30.17
2023-04-15T00:28:10.004Z,29.63
2023-04-15T00:31:13.748Z,28.80
2023-04-15T00:34:17.640Z,22.98
2023-04-15T00:37:20.743Z,22.48
2023-04-15T00:40:25.620Z,25.73
2023-04-15T00:43:32.063Z,22.05
2023-04-15T00:46:38.840Z,24.60
2023-04-15T00:49:42.023Z,25.03
2023-04-15T00:52:45.677Z,24.90
2023-04-15T00:55:49.343Z,24.15
2023-04-15T00:58:53.259Z,23.38
2023-04-15T01:01:57.141Z,22.75
2023-04-15T01:05:01.551Z,21.98
2023-04-15T01:08:06.491Z,21.83
2023-04-15T01:11:13.684Z,22.02
2023-04-15T01:14:18.035Z,19.77
2023-04-15T01:17:22.155Z,21.67
2023-04-15T01:20:25.495Z,21.17
2023-04-15T01:23:29.999Z,21.90
2023-04-15T01:26:33.892Z,21.27
2023-04-15T01:29:39.725Z,19.83
2023-04-15T01:32:43.204Z,20.42
2023-04-15T01:35:48.271Z,21.00
2023-04-15T01:38:52.548Z,21.60
2023-04-15T01:41:59.389Z,23.15
2023-04-15T01:45:04.425Z,21.73
2023-04-15T01:48:08.246Z,21.33
2023-04-15T01:51:14.007Z,21.45
2023-04-15T01:54:18.292Z,18.33
2023-04-15T01:57:22.031Z,19.60
2023-04-15T02:00:28.471Z,19.33
2023-04-15T02:03:33.065Z,18.30
2023-04-15T02:06:37.481Z,17.40
2023-04-15T02:09:41.223Z,17.98
2023-04-15T02:12:45.489Z,17.10
2023-04-15T02:15:50.661Z,15.40
2023-04-15T02:18:55.714Z,15.95
2023-04-15T02:22:00.823Z,15.85
2023-04-15T02:25:04.246Z,16.80
2023-04-15T02:28:09.000Z,15.52
2023-04-15T02:31:13.135Z,15.23
2023-04-15T02:34:17.248Z,14.68
2023-04-15T02:37:21.556Z,14.73
2023-04-15T02:40:25.124Z,15.35
2023-04-15T02:43:28.631Z,12.15
2023-04-15T02:46:33.051Z,16.23
2023-04-15T02:49:36.528Z,16.20
2023-04-15T02:52:44.268Z,15.02
2023-04-15T02:55:47.533Z,15.50
2023-04-15T02:58:56.890Z,17.45
2023-04-15T03:02:01.763Z,16.27
2023-04-15T03:05:07.053Z,17.02
2023-04-15T03:08:10.556Z,16.10
2023-04-15T03:11:17.347Z,16.73
2023-04-15T03:14:21.991Z,15.25
2023-04-15T03:17:25.604Z,15.15
2023-04-15T03:20:29.259Z,11.55
2023-04-15T03:23:33.186Z,13.82
2023-04-15T03:26:38.254Z,12.38
2023-04-15T03:29:48.805Z,14.10
2023-04-15T03:32:53.861Z,9.23
2023-04-15T03:35:58.249Z,11.75
2023-04-15T03:39:03.194Z,9.43
2023-04-15T03:42:07.846Z,10.60
2023-04-15T03:45:12.106Z,11.27
2023-04-15T03:48:18.056Z,8.43
2023-04-15T03:51:22.342Z,9.38
2023-04-15T03:54:25.615Z,8.80
2023-04-15T03:57:29.452Z,7.07
2023-04-15T04:00:32.618Z,4.03
2023-04-15T04:03:37.977Z,4.38
2023-04-15T04:06:41.705Z,4.00
2023-04-15T04:09:47.287Z,3.83
2023-04-15T04:12:51.122Z,3.85
2023-04-15T04:15:54.825Z,3.63
2023-04-15T04:18:58.922Z,3.45
2023-04-15T04:22:03.309Z,3.13
2023-04-15T04:25:09.218Z,2.75
2023-04-15T04:28:13.754Z,3.03
2023-04-15T04:31:17.776Z,1.98
2023-04-15T04:34:21.863Z,1.58
2023-04-15T04:37:26.536Z,1.67
2023-04-15T04:40:30.032Z,2.95
2023-04-15T04:43:33.176Z,4.20
2023-04-15T04:46:37.409Z,3.35
2023-04-15T04:49:41.891Z,3.13
2023-04-15T04:52:45.996Z,4.35
2023-04-15T04:55:49.947Z,4.13
2023-04-15T04:58:53.858Z,2.95
2023-04-15T05:01:57.758Z,3.70
2023-04-15T05:05:02.745Z,4.13
2023-04-15T05:08:06.646Z,4.00
2023-04-15T05:11:09.999Z,4.13
2023-04-15T05:14:13.116Z,4.32
2023-04-15T05:17:17.029Z,3.80
2023-04-15T05:20:20.602Z,4.22
2023-04-15T05:23:24.410Z,4.28
2023-04-15T05:26:28.067Z,4.35
2023-04-15T05:29:31.916Z,3.83
2023-04-15T05:32:35.692Z,4.00
2023-04-15T05:35:39.600Z,4.30
2023-04-15T05:38:43.145Z,4.00
2023-04-15T05:41:47.806Z,3.45
2023-04-15T05:44:52.302Z,3.67
2023-04-15T05:47:56.853Z,3.10
2023-04-15T05:51:01.282Z,4.40
2023-04-15T05:54:04.915Z,4.00
2023-04-15T05:57:08.809Z,1.00
2023-04-15T06:00:14.120Z,1.67
2023-04-15T06:03:17.974Z,2.47
2023-04-15T06:06:22.253Z,2.70
2023-04-15T06:09:26.255Z,3.25
2023-04-15T06:12:30.528Z,3.15
2023-04-15T06:15:34.016Z,2.53
2023-04-15T06:18:37.565Z,1.15
2023-04-15T06:21:42.010Z,0.82
2023-04-15T06:24:46.525Z,0.90
2023-04-15T06:27:50.354Z,0.80
2023-04-15T06:30:54.826Z,0.88
2023-04-15T06:33:58.528Z,0.82
2023-04-15T06:37:03.004Z,1.25
2023-04-15T06:40:10.688Z,1.02
2023-04-15T06:43:14.690Z,1.20
2023-04-15T06:46:18.524Z,1.85
2023-04-15T06:49:23.059Z,0.80
2023-04-15T06:52:26.764Z,1.27
2023-04-15T06:55:32.178Z,1.60
2023-04-15T06:58:38.632Z,1.23
2023-04-15T07:01:43.038Z,1.10
2023-04-15T07:04:46.498Z,1.20
2023-04-15T07:07:51.196Z,1.20
2023-04-15T07:10:55.597Z,1.70
2023-04-15T07:13:59.932Z,1.08
2023-04-15T07:17:03.320Z,1.52
2023-04-15T07:20:07.348Z,1.10
2023-04-15T07:23:11.407Z,1.02
2023-04-15T07:26:14.803Z,1.38
2023-04-15T07:29:18.717Z,1.60
2023-04-15T07:32:22.661Z,1.40
2023-04-15T07:35:27.204Z,1.52
2023-04-15T07:38:30.930Z,1.15
2023-04-15T07:41:34.976Z,1.00
2023-04-15T07:44:38.137Z,1.02
2023-04-15T07:47:42.718Z,0.90
2023-04-15T07:50:47.006Z,1.20
2023-04-15T07:53:51.265Z,0.98
2023-04-15T07:56:55.653Z,1.27
2023-04-15T07:59:58.949Z,1.65
2023-04-15T08:03:02.804Z,1.65
2023-04-15T08:06:07.299Z,1.20
2023-04-15T08:09:10.565Z,1.10
2023-04-15T08:12:14.133Z,1.10
2023-04-15T08:15:18.673Z,1.10
2023-04-15T08:18:22.470Z,1.20
2023-04-15T08:21:26.870Z,1.15
2023-04-15T08:24:32.119Z,1.17
2023-04-15T08:27:35.426Z,1.20
2023-04-15T08:30:39.163Z,1.15
2023-04-15T08:33:43.449Z,1.20
2023-04-15T08:36:47.036Z,1.10
2023-04-15T08:39:51.178Z,1.02
2023-04-15T08:42:58.348Z,1.15
2023-04-15T08:46:03.506Z,1.10
2023-04-15T08:49:06.568Z,1.55
2023-04-15T08:52:11.597Z,1.50
2023-04-15T08:55:16.995Z,1.48
2023-04-15T08:58:21.583Z,1.40
2023-04-15T09:01:25.579Z,1.17
2023-04-15T09:04:30.085Z,1.10
2023-04-15T09:07:36.568Z,1.35
2023-04-15T09:10:41.228Z,1.70
2023-04-15T09:13:45.174Z,2.40
2023-04-15T09:17:11.703Z,2.47
2023-04-15T09:20:17.557Z,1.73
2023-04-15T09:23:21.235Z,1.70
2023-04-15T09:26:40.707Z,1.70
2023-04-15T09:29:44.928Z,1.23
2023-04-15T09:32:57.185Z,1.70
2023-04-15T09:36:06.025Z,1.73
2023-04-15T09:39:10.080Z,1.40
2023-04-15T09:42:14.050Z,1.30
2023-04-15T09:45:17.401Z,2.03
2023-04-15T09:48:24.545Z,3.80
2023-04-15T09:51:36.578Z,3.17
2023-04-15T09:54:40.810Z,2.33
2023-04-15T09:57:48.236Z,1.58
2023-04-15T10:00:54.226Z,1.55
2023-04-15T10:04:04.773Z,1.30
2023-04-15T10:07:11.098Z,1.45
2023-04-15T10:10:16.113Z,1.70
2023-04-15T10:13:23.188Z,3.40
2023-04-15T10:16:32.095Z,2.00
2023-04-15T10:19:39.103Z,3.58
2023-04-15T10:22:42.982Z,3.90
2023-04-15T10:25:48.290Z,4.00
2023-04-15T10:28:52.914Z,2.92
2023-04-15T10:32:01.028Z,1.90
2023-04-15T10:35:06.657Z,2.40
2023-04-15T10:38:35.834Z,2.08
2023-04-15T10:41:39.503Z,2.25
2023-04-15T10:44:44.961Z,2.08
2023-04-15T10:47:55.056Z,1.15
2023-04-15T10:51:01.791Z,1.23
2023-04-15T10:54:29.709Z,1.65
2023-04-15T10:57:39.560Z,1.40
2023-04-15T11:00:52.876Z,1.60
2023-04-15T11:03:57.359Z,0.90
2023-04-15T11:07:09.337Z,0.93
2023-04-15T11:10:18.752Z,1.10
2023-04-15T11:13:25.999Z,1.20
2023-04-15T11:16:30.129Z,0.80
2023-04-15T11:19:40.045Z,1.35
2023-04-15T11:23:14.208Z,1.02
2023-04-15T11:26:18.249Z,1.00
2023-04-15T11:29:22.361Z,0.80
2023-04-15T11:32:25.514Z,0.80
2023-04-15T11:35:30.068Z,0.75
2023-04-15T11:38:35.335Z,1.00
2023-04-15T11:41:39.291Z,0.95
2023-04-15T11:44:42.966Z,1.10
2023-04-15T11:47:46.527Z,1.30
2023-04-15T11:51:04.482Z,1.63
2023-04-15T11:54:08.174Z,2.00
2023-04-15T11:57:11.096Z,1.92
2023-04-15T12:00:15.093Z,2.40
2023-04-15T12:03:21.043Z,2.50
2023-04-15T12:06:26.427Z,1.70
2023-04-15T12:09:30.927Z,2.20
2023-04-15T12:12:36.469Z,1.90
2023-04-15T12:15:40.213Z,1.67
2023-04-15T12:18:52.904Z,1.92
2023-04-15T12:22:05.923Z,1.98
2023-04-15T12:25:09.748Z,1.80
2023-04-15T12:28:13.563Z,2.20
2023-04-15T12:31:17.948Z,1.70
2023-04-15T12:34:35.426Z,1.80
2023-04-15T12:37:39.946Z,1.33
2023-04-15T12:40:43.624Z,1.17
2023-04-15T12:43:48.107Z,1.70
2023-04-15T12:46:54.423Z,1.20
2023-04-15T12:49:57.487Z,1.45
2023-04-15T12:53:00.408Z,1.45
2023-04-15T12:56:04.034Z,2.10
2023-04-15T12:59:07.098Z,1.70
2023-04-15T13:02:11.413Z,1.80
2023-04-15T13:05:16.318Z,1.80
2023-04-15T13:08:21.944Z,1.60
2023-04-15T13:11:26.063Z,1.92
2023-04-15T13:14:29.640Z,1.52
2023-04-15T13:17:32.601Z,1.48
2023-04-15T13:20:37.005Z,1.30
2023-04-15T13:23:42.443Z,1.35
2023-04-15T13:26:46.403Z,1.30
2023-04-15T13:29:50.877Z,1.20
2023-04-15T13:32:55.009Z,1.30
2023-04-15T13:35:58.739Z,1.27
2023-04-15T13:39:02.501Z,1.15
2023-04-15T13:42:06.232Z,1.10
2023-04-15T13:45:10.370Z,1.30
2023-04-15T13:48:14.229Z,1.20
2023-04-15T13:51:17.331Z,1.02
2023-04-15T13:54:20.719Z,1.00
2023-04-15T13:57:24.929Z,1.05
2023-04-15T14:00:28.058Z,1.38
2023-04-15T14:03:32.305Z,1.20
2023-04-15T14:06:36.182Z,2.00
2023-04-15T14:09:43.250Z,1.27
2023-04-15T14:12:47.208Z,1.30
2023-04-15T14:15:51.433Z,1.30
2023-04-15T14:18:54.907Z,1.38
2023-04-15T14:21:59.114Z,1.00
2023-04-15T14:25:02.531Z,1.13
2023-04-15T14:28:06.860Z,1.08
2023-04-15T14:31:10.085Z,1.23
2023-04-15T14:34:15.187Z,1.23
2023-04-15T14:37:20.036Z,1.08
2023-04-15T14:40:24.458Z,0.80
2023-04-15T14:43:28.850Z,1.02
2023-04-15T14:46:32.587Z,1.83
2023-04-15T14:49:36.114Z,1.02
2023-04-15T14:52:41.157Z,0.95
2023-04-15T14:55:47.296Z,1.00
2023-04-15T14:58:54.082Z,1.00
2023-04-15T15:01:58.249Z,1.10
2023-04-15T15:05:03.400Z,1.00
2023-04-15T15:08:09.878Z,0.90
2023-04-15T15:11:14.708Z,1.17
2023-04-15T15:14:19.223Z,1.05
2023-04-15T15:17:24.005Z,1.20
2023-04-15T15:20:28.910Z,1.42
2023-04-15T15:23:33.245Z,1.08
2023-04-15T15:26:37.020Z,0.90
2023-04-15T15:29:41.785Z,1.02
2023-04-15T15:32:46.423Z,1.55
2023-04-15T15:35:50.194Z,1.55
2023-04-15T15:38:55.517Z,1.10
2023-04-15T15:41:59.749Z,1.17
2023-04-15T15:45:05.721Z,1.20
2023-04-15T15:48:10.325Z,1.05
2023-04-15T15:51:17.347Z,2.03
2023-04-15T15:54:21.377Z,0.95
2023-04-15T15:57:24.370Z,0.98
2023-04-15T16:00:28.121Z,0.90
2023-04-15T16:03:31.305Z,0.98
2023-04-15T16:06:35.371Z,1.02
2023-04-15T16:09:41.570Z,1.00
2023-04-15T16:12:45.508Z,0.85
2023-04-15T16:15:50.929Z,1.00
2023-04-15T16:18:54.544Z,1.00
2023-04-15T16:21:58.253Z,1.02
2023-04-15T16:25:01.996Z,1.10
2023-04-15T16:28:14.821Z,0.90
2023-04-15T16:31:26.093Z,0.90
2023-04-15T16:34:30.203Z,0.98
2023-04-15T16:37:35.064Z,0.70
2023-04-15T16:40:38.960Z,0.73
2023-04-15T16:43:43.148Z,2.08
2023-04-15T16:46:46.271Z,0.70
2023-04-15T16:49:49.316Z,0.98
2023-04-15T16:52:53.603Z,0.82
2023-04-15T16:55:57.088Z,1.00
2023-04-15T16:59:00.270Z,0.73
2023-04-15T17:02:04.578Z,0.70
2023-04-15T17:05:09.244Z,0.82
2023-04-15T17:08:12.610Z,0.80
2023-04-15T17:11:16.191Z,0.93
2023-04-15T17:14:19.583Z,1.20
2023-04-15T17:17:23.712Z,0.85
2023-04-15T17:20:27.232Z,0.90
2023-04-15T17:23:30.566Z,1.00
2023-04-15T17:26:34.885Z,1.00
2023-04-15T17:29:37.971Z,1.05
2023-04-15T17:32:42.171Z,0.95
2023-04-15T17:35:45.637Z,1.48
2023-04-15T17:38:50.097Z,1.00
2023-04-15T17:41:53.230Z,1.10
2023-04-15T17:44:56.949Z,1.10
2023-04-15T17:48:04.033Z,1.00
2023-04-15T17:51:08.376Z,1.53
2023-04-15T17:54:11.605Z,1.17
2023-04-15T17:57:14.938Z,1.10
2023-04-15T18:00:18.781Z,0.90
2023-04-15T18:03:22.905Z,0.93
2023-04-15T18:06:27.801Z,0.90
2023-04-15T18:09:31.139Z,1.02
2023-04-15T18:12:34.965Z,0.80
2023-04-15T18:15:39.118Z,1.00
2023-04-15T18:18:42.663Z,1.30
2023-04-15T18:21:46.825Z,1.05
2023-04-15T18:24:52.615Z,1.00
2023-04-15T18:27:56.996Z,0.90
2023-04-15T18:31:00.345Z,0.80
2023-04-15T18:34:08.114Z,0.90
2023-04-15T18:37:11.678Z,1.00
2023-04-15T18:40:17.144Z,0.90
2023-04-15T18:43:20.555Z,0.82
2023-04-15T18:46:24.721Z,0.70
2023-04-15T18:49:28.006Z,1.10
2023-04-15T18:52:32.096Z,1.33
2023-04-15T18:55:36.424Z,0.90
2023-04-15T18:59:26.917Z,1.00
2023-04-15T19:02:04.173Z,1.00
2023-04-15T19:05:08.494Z,0.90
2023-04-15T19:08:11.789Z,1.20
2023-04-15T19:11:16.053Z,0.90
2023-04-15T19:14:19.125Z,0.93
2023-04-15T19:17:22.151Z,0.90
2023-04-15T19:20:25.217Z,0.80
2023-04-15T19:23:28.773Z,0.80
2023-04-15T19:26:32.086Z,0.70
2023-04-15T19:29:35.944Z,1.00
2023-04-15T19:32:39.817Z,1.08
2023-04-15T19:35:43.762Z,0.70
2023-04-15T19:38:46.808Z,0.98
2023-04-15T19:41:51.794Z,0.95
2023-04-15T19:44:56.492Z,1.13
2023-04-15T19:48:00.591Z,0.82
2023-04-15T19:51:03.948Z,0.63
2023-04-15T19:54:08.045Z,0.90
2023-04-15T19:57:11.370Z,0.80
2023-04-15T20:00:15.319Z,1.00
2023-04-15T20:03:19.494Z,0.70
2023-04-15T20:06:23.782Z,0.82
2023-04-15T20:09:27.162Z,1.38
2023-04-15T20:12:50.533Z,1.20
2023-04-15T20:15:54.599Z,1.10
2023-04-15T20:19:04.933Z,1.20
2023-04-15T20:22:08.766Z,0.85
2023-04-15T20:25:12.834Z,0.82
2023-04-15T20:28:18.594Z,0.90
2023-04-15T20:31:23.507Z,0.93
2023-04-15T20:34:27.329Z,0.90
2023-04-15T20:37:34.201Z,0.90
2023-04-15T20:40:39.432Z,0.80
2023-04-15T20:43:44.493Z,1.10
2023-04-15T20:46:48.305Z,0.90
2023-04-15T20:49:52.117Z,0.93
2023-04-15T20:52:55.727Z,0.93
2023-04-15T20:56:01.153Z,1.10
2023-04-15T20:59:05.322Z,1.42
2023-04-15T21:02:09.941Z,0.70
2023-04-15T21:05:13.425Z,1.10
2023-04-15T21:08:17.770Z,1.00
2023-04-15T21:11:40.613Z,1.10
2023-04-15T21:14:45.966Z,0.80
2023-04-15T21:17:49.367Z,0.75
2023-04-15T21:21:03.497Z,1.95
2023-04-15T21:24:08.312Z,1.00
2023-04-15T21:27:12.587Z,1.30
2023-04-15T21:30:16.321Z,1.27
2023-04-15T21:33:21.331Z,0.90
2023-04-15T21:36:25.262Z,1.00
2023-04-15T21:39:29.727Z,1.08
2023-04-15T21:42:33.027Z,1.15
2023-04-15T21:45:39.944Z,0.80
2023-04-15T21:48:43.452Z,1.17
2023-04-15T21:51:48.480Z,0.95
2023-04-15T21:54:52.261Z,0.90
2023-04-15T21:57:55.665Z,0.90
2023-04-15T22:01:00.819Z,1.55
2023-04-15T22:04:05.164Z,1.35
2023-04-15T22:07:08.528Z,1.20
2023-04-15T22:10:12.659Z,1.20
2023-04-15T22:13:16.446Z,0.80
2023-04-15T22:16:20.565Z,1.00
2023-04-15T22:19:24.044Z,1.02
2023-04-15T22:22:44.304Z,1.00
2023-04-15T22:25:48.809Z,0.80
2023-04-15T22:28:52.618Z,0.95
2023-04-15T22:31:56.482Z,1.00
2023-04-15T22:35:00.206Z,0.90
2023-04-15T22:38:04.574Z,1.10
2023-04-15T22:41:08.939Z,1.30
2023-04-15T22:44:12.485Z,0.90
2023-04-15T22:47:16.756Z,1.83
2023-04-15T22:50:20.285Z,0.85
2023-04-15T22:53:24.098Z,1.13
2023-04-15T22:56:27.913Z,1.20
2023-04-15T22:59:32.053Z,1.15
2023-04-15T23:02:36.195Z,1.52
2023-04-15T23:05:41.652Z,1.30
2023-04-15T23:08:48.650Z,1.23
2023-04-15T23:11:52.947Z,1.05
2023-04-15T23:14:56.660Z,1.10
2023-04-15T23:18:01.366Z,1.17
2023-04-15T23:21:05.325Z,1.30
2023-04-15T23:24:08.989Z,0.98
2023-04-15T23:27:12.580Z,1.55
2023-04-15T23:30:16.258Z,1.42
2023-04-15T23:33:19.920Z,1.70
2023-04-15T23:36:23.851Z,1.70
2023-04-15T23:39:27.227Z,2.10
2023-04-15T23:42:31.601Z,1.80
2023-04-15T23:45:34.896Z,2.20
2023-04-15T23:48:39.382Z,1.58
2023-04-15T23:51:42.983Z,1.60
2023-04-15T23:54:46.998Z,2.30
2023-04-15T23:57:50.381Z,1.95
